createdAt,value
2022-11-02T00:00:22.346Z,1.60
2022-11-02T00:02:51.191Z,1.95
2022-11-02T00:05:24.541Z,2.45
2022-11-02T00:07:53.559Z,1.67
2022-11-02T00:10:22.686Z,1.98
2022-11-02T00:12:53.265Z,1.77
2022-11-02T00:15:21.648Z,1.52
2022-11-02T00:17:54.689Z,2.00
2022-11-02T00:20:23.074Z,1.50
2022-11-02T00:22:54.830Z,1.88
2022-11-02T00:25:25.174Z,1.52
2022-11-02T00:27:54.748Z,1.55
2022-11-02T00:30:23.311Z,1.85
2022-11-02T00:32:51.900Z,2.30
2022-11-02T00:35:20.216Z,1.33
2022-11-02T00:37:48.674Z,2.00
2022-11-02T00:40:18.523Z,1.40
2022-11-02T00:42:47.044Z,1.63
2022-11-02T00:45:16.680Z,1.00
2022-11-02T00:47:45.085Z,1.63
2022-11-02T00:50:13.499Z,1.40
2022-11-02T00:52:42.327Z,1.63
2022-11-02T00:55:12.051Z,1.30
2022-11-02T00:57:44.380Z,1.30
2022-11-02T01:00:14.134Z,1.17
2022-11-02T01:02:44.544Z,1.13
2022-11-02T01:05:13.551Z,1.45
2022-11-02T01:07:41.726Z,1.13
2022-11-02T01:10:11.950Z,1.50
2022-11-02T01:12:41.247Z,2.13
2022-11-02T01:15:12.461Z,1.27
2022-11-02T01:17:40.887Z,1.48
2022-11-02T01:20:12.091Z,1.60
2022-11-02T01:22:40.234Z,1.20
2022-11-02T01:25:09.133Z,1.85
2022-11-02T01:27:37.596Z,1.20
2022-11-02T01:30:06.829Z,1.20
2022-11-02T01:32:35.183Z,1.35
2022-11-02T01:35:03.817Z,1.58
2022-11-02T01:37:33.947Z,1.30
2022-11-02T01:40:02.174Z,1.10
2022-11-02T01:42:30.712Z,1.20
2022-11-02T01:44:58.979Z,1.50
2022-11-02T01:47:31.242Z,1.02
2022-11-02T01:50:05.095Z,1.40
2022-11-02T01:52:37.476Z,1.42
2022-11-02T01:55:11.260Z,1.20
2022-11-02T01:57:41.103Z,1.33
2022-11-02T02:00:11.996Z,1.23
2022-11-02T02:02:47.114Z,1.13
2022-11-02T02:05:17.772Z,1.40
2022-11-02T02:07:48.580Z,1.50
2022-11-02T02:10:18.055Z,1.20
2022-11-02T02:12:46.456Z,0.98
2022-11-02T02:15:19.271Z,1.30
2022-11-02T02:17:54.012Z,1.38
2022-11-02T02:20:36.531Z,1.27
2022-11-02T02:23:39.401Z,1.55
2022-11-02T02:26:43.295Z,1.83
2022-11-02T02:29:20.043Z,1.25
2022-11-02T02:31:56.176Z,1.40
2022-11-02T02:34:28.658Z,1.30
2022-11-02T02:37:02.406Z,1.42
2022-11-02T02:39:40.763Z,1.27
2022-11-02T02:42:14.867Z,1.48
2022-11-02T02:44:52.241Z,1.48
2022-11-02T02:47:24.668Z,1.33
2022-11-02T02:49:59.149Z,1.88
2022-11-02T02:52:29.795Z,1.60
2022-11-02T02:55:00.974Z,1.30
2022-11-02T02:57:31.798Z,1.38
2022-11-02T03:00:01.397Z,1.50
2022-11-02T03:02:35.516Z,1.73
2022-11-02T03:05:03.935Z,1.38
2022-11-02T03:07:35.080Z,1.35
2022-11-02T03:10:13.625Z,1.55
2022-11-02T03:12:51.645Z,1.70
2022-11-02T03:15:27.451Z,1.30
2022-11-02T03:18:03.810Z,2.03
2022-11-02T03:20:42.927Z,1.38
2022-11-02T03:23:16.871Z,1.70
2022-11-02T03:25:54.420Z,1.20
2022-11-02T03:28:29.900Z,1.77
2022-11-02T03:31:08.849Z,1.70
2022-11-02T03:33:39.758Z,1.85
2022-11-02T03:36:11.749Z,1.40
2022-11-02T03:38:45.998Z,1.67
2022-11-02T03:41:18.880Z,1.75
2022-11-02T03:43:49.326Z,1.15
2022-11-02T03:46:20.811Z,1.73
2022-11-02T03:48:53.971Z,2.05
2022-11-02T03:51:26.816Z,1.55
2022-11-02T03:54:00.744Z,1.88
2022-11-02T03:56:36.980Z,2.22
2022-11-02T03:59:05.645Z,1.33
2022-11-02T04:01:42.925Z,1.20
2022-11-02T04:04:13.067Z,1.70
2022-11-02T04:06:44.107Z,1.85
2022-11-02T04:09:14.060Z,1.60
2022-11-02T04:12:00.594Z,1.60
2022-11-02T04:14:40.185Z,1.88
2022-11-02T04:17:39.025Z,1.80
2022-11-02T04:20:13.721Z,1.52
2022-11-02T04:22:59.414Z,1.55
2022-11-02T04:25:27.853Z,1.67
2022-11-02T04:28:09.374Z,1.30
2022-11-02T04:30:42.979Z,1.77
2022-11-02T04:33:30.516Z,2.00
2022-11-02T04:36:11.431Z,1.88
2022-11-02T04:38:40.697Z,1.50
2022-11-02T04:41:37.337Z,1.70
2022-11-02T04:44:09.651Z,1.80
2022-11-02T04:46:40.325Z,1.75
2022-11-02T04:49:14.402Z,2.03
2022-11-02T04:51:48.750Z,1.67
2022-11-02T04:54:20.241Z,1.80
2022-11-02T04:56:54.536Z,1.60
2022-11-02T04:59:25.530Z,1.80
2022-11-02T05:01:54.645Z,1.42
2022-11-02T05:04:24.613Z,1.67
2022-11-02T05:06:54.545Z,2.00
2022-11-02T05:09:25.380Z,1.63
2022-11-02T05:11:53.775Z,1.80
2022-11-02T05:14:21.910Z,1.42
2022-11-02T05:16:50.283Z,1.90
2022-11-02T05:19:20.071Z,1.73
2022-11-02T05:21:50.920Z,2.22
2022-11-02T05:24:19.324Z,1.95
2022-11-02T05:26:52.941Z,1.75
2022-11-02T05:29:25.437Z,1.85
2022-11-02T05:31:54.365Z,1.73
2022-11-02T05:34:22.952Z,1.80
2022-11-02T05:36:52.610Z,1.77
2022-11-02T05:39:23.377Z,1.63
2022-11-02T05:41:51.593Z,1.83
2022-11-02T05:44:20.571Z,2.53
2022-11-02T05:46:48.887Z,1.70
2022-11-02T05:49:17.306Z,1.98
2022-11-02T05:51:45.503Z,1.42
2022-11-02T05:54:15.244Z,1.63
2022-11-02T05:56:43.746Z,1.50
2022-11-02T05:59:11.944Z,2.05
2022-11-02T06:01:40.233Z,1.65
2022-11-02T06:04:09.183Z,1.80
2022-11-02T06:06:37.277Z,1.90
2022-11-02T06:09:07.313Z,1.45
2022-11-02T06:11:37.175Z,1.75
2022-11-02T06:14:05.482Z,2.10
2022-11-02T06:16:33.725Z,2.00
2022-11-02T06:19:02.016Z,1.90
2022-11-02T06:21:30.238Z,1.55
2022-11-02T06:23:59.001Z,1.83
2022-11-02T06:26:27.235Z,1.70
2022-11-02T06:28:57.149Z,1.73
2022-11-02T06:31:25.560Z,2.13
2022-11-02T06:33:53.804Z,1.98
2022-11-02T06:36:22.003Z,2.13
2022-11-02T06:38:51.130Z,2.30
2022-11-02T06:41:19.296Z,2.10
2022-11-02T06:43:47.497Z,1.80
2022-11-02T06:46:17.924Z,2.00
2022-11-02T06:48:49.058Z,1.85
2022-11-02T06:51:17.231Z,1.73
2022-11-02T06:53:45.742Z,1.92
2022-11-02T06:56:13.842Z,1.90
2022-11-02T06:58:42.081Z,1.63
2022-11-02T07:01:11.171Z,2.08
2022-11-02T07:03:41.463Z,1.95
2022-11-02T07:06:13.851Z,2.30
2022-11-02T07:08:43.387Z,2.35
2022-11-02T07:11:15.313Z,2.00
2022-11-02T07:13:43.605Z,2.00
2022-11-02T07:16:11.928Z,1.65
2022-11-02T07:18:42.039Z,2.00
2022-11-02T07:21:11.392Z,2.00
2022-11-02T07:23:40.155Z,2.22
2022-11-02T07:26:08.523Z,1.73
2022-11-02T07:28:38.606Z,1.63
2022-11-02T07:31:07.155Z,1.77
2022-11-02T07:33:35.415Z,1.90
2022-11-02T07:36:06.602Z,1.70
2022-11-02T07:38:35.065Z,2.25
2022-11-02T07:41:03.454Z,2.38
2022-11-02T07:43:32.894Z,1.70
2022-11-02T07:46:07.497Z,2.13
2022-11-02T07:48:36.837Z,1.95
2022-11-02T07:51:07.629Z,1.85
2022-11-02T07:53:35.785Z,2.22
2022-11-02T07:56:04.358Z,2.00
2022-11-02T07:58:32.840Z,2.03
2022-11-02T08:01:02.566Z,2.40
2022-11-02T08:03:31.166Z,1.83
2022-11-02T08:06:02.251Z,3.05
2022-11-02T08:08:32.160Z,1.70
2022-11-02T08:11:05.877Z,1.90
2022-11-02T08:13:34.772Z,2.00
2022-11-02T08:16:02.944Z,1.88
2022-11-02T08:18:32.759Z,2.28
2022-11-02T08:21:01.849Z,1.70
2022-11-02T08:23:31.457Z,1.80
2022-11-02T08:26:00.441Z,1.55
2022-11-02T08:28:32.089Z,2.10
2022-11-02T08:31:00.646Z,1.90
2022-11-02T08:33:28.902Z,2.20
2022-11-02T08:36:03.515Z,2.35
2022-11-02T08:38:33.354Z,2.08
2022-11-02T08:41:01.956Z,2.00
2022-11-02T08:43:30.344Z,1.95
2022-11-02T08:46:14.236Z,1.70
2022-11-02T08:48:43.303Z,1.90
2022-11-02T08:51:11.734Z,2.05
2022-11-02T08:53:43.017Z,1.98
2022-11-02T08:56:14.312Z,1.92
2022-11-02T08:58:43.772Z,1.70
2022-11-02T09:01:12.101Z,2.05
2022-11-02T09:03:40.515Z,2.38
2022-11-02T09:06:09.427Z,1.60
2022-11-02T09:08:37.832Z,2.03
2022-11-02T09:11:07.859Z,1.75
2022-11-02T09:13:36.327Z,1.75
2022-11-02T09:16:05.203Z,1.60
2022-11-02T09:18:33.752Z,1.63
2022-11-02T09:21:06.432Z,1.90
2022-11-02T09:23:34.811Z,1.83
2022-11-02T09:26:03.423Z,1.48
2022-11-02T09:28:33.783Z,1.80
2022-11-02T09:31:03.816Z,1.80
2022-11-02T09:33:36.230Z,1.63
2022-11-02T09:36:06.296Z,1.38
2022-11-02T09:38:34.888Z,1.50
2022-11-02T09:41:13.207Z,1.40
2022-11-02T09:44:13.157Z,1.55
2022-11-02T09:46:46.094Z,1.85
2022-11-02T09:49:18.145Z,1.60
2022-11-02T09:51:49.976Z,1.60
2022-11-02T09:54:23.112Z,1.38
2022-11-02T09:56:53.429Z,1.45
2022-11-02T09:59:25.686Z,1.80
2022-11-02T10:02:01.595Z,1.60
2022-11-02T10:04:56.263Z,1.60
2022-11-02T10:07:37.302Z,1.63
2022-11-02T10:10:12.958Z,2.00
2022-11-02T10:12:49.574Z,1.75
2022-11-02T10:15:24.096Z,1.70
2022-11-02T10:17:57.468Z,1.80
2022-11-02T10:20:28.587Z,1.55
2022-11-02T10:23:00.743Z,2.00
2022-11-02T10:25:29.026Z,1.30
2022-11-02T10:28:04.585Z,1.80
2022-11-02T10:30:34.413Z,1.35
2022-11-02T10:33:03.505Z,1.20
2022-11-02T10:38:45.781Z,1.98
2022-11-02T10:41:28.091Z,1.17
2022-11-02T10:44:11.632Z,1.58
2022-11-02T10:46:54.165Z,1.30
2022-11-02T10:49:56.199Z,1.45
2022-11-02T10:52:24.780Z,1.38
2022-11-02T10:54:53.225Z,0.90
2022-11-02T10:57:23.842Z,1.30
2022-11-02T11:00:30.546Z,1.77
2022-11-02T11:03:09.415Z,1.50
2022-11-02T11:05:45.112Z,1.65
2022-11-02T11:08:30.260Z,1.60
2022-11-02T11:11:20.691Z,1.33
2022-11-02T11:16:48.409Z,1.70
2022-11-02T11:19:40.634Z,1.30
2022-11-02T11:22:27.320Z,1.13
2022-11-02T11:25:26.049Z,1.45
2022-11-02T11:27:57.577Z,1.70
2022-11-02T11:30:54.106Z,1.25
2022-11-02T11:33:20.857Z,1.45
2022-11-02T11:35:52.341Z,1.35
2022-11-02T11:38:26.140Z,1.58
2022-11-02T11:40:58.155Z,1.08
2022-11-02T11:43:29.749Z,1.80
2022-11-02T11:46:05.812Z,1.48
2022-11-02T11:48:41.134Z,1.30
2022-11-02T11:51:30.665Z,1.10
2022-11-02T11:54:21.134Z,0.93
2022-11-02T11:56:51.204Z,1.15
2022-11-02T11:59:23.161Z,1.23
2022-11-02T12:01:54.496Z,1.10
2022-11-02T12:04:31.421Z,1.08
2022-11-02T12:07:26.000Z,1.00
2022-11-02T12:10:06.832Z,1.27
2022-11-02T12:12:52.426Z,1.42
2022-11-02T12:15:34.519Z,1.35
2022-11-02T12:18:14.845Z,1.50
2022-11-02T12:21:00.233Z,0.90
2022-11-02T12:23:53.349Z,1.33
2022-11-02T12:26:31.939Z,1.35
2022-11-02T12:29:12.799Z,1.27
2022-11-02T12:31:43.257Z,1.13
2022-11-02T12:34:29.522Z,1.40
2022-11-02T12:37:33.179Z,1.48
2022-11-02T12:40:15.503Z,1.15
2022-11-02T12:43:12.600Z,1.10
2022-11-02T12:45:51.115Z,1.55
2022-11-02T12:48:27.050Z,1.30
2022-11-02T12:51:03.808Z,1.70
2022-11-02T12:53:47.093Z,1.35
2022-11-02T12:56:21.612Z,0.93
2022-11-02T12:58:50.724Z,1.42
2022-11-02T13:01:26.200Z,1.30
2022-11-02T13:04:02.698Z,1.30
2022-11-02T13:06:35.193Z,1.30
2022-11-02T13:09:08.742Z,1.38
2022-11-02T13:11:41.858Z,1.10
2022-11-02T13:14:15.734Z,1.25
2022-11-02T13:16:50.092Z,1.17
2022-11-02T13:19:22.134Z,1.00
2022-11-02T13:21:55.055Z,0.98
2022-11-02T13:24:28.050Z,1.40
2022-11-02T13:27:21.746Z,1.05
2022-11-02T13:29:51.801Z,1.42
2022-11-02T13:32:32.607Z,1.42
2022-11-02T13:35:07.621Z,1.17
2022-11-02T13:37:38.990Z,1.20
2022-11-02T13:40:15.406Z,1.15
2022-11-02T13:43:09.447Z,0.93
2022-11-02T13:45:49.156Z,1.42
2022-11-02T13:48:31.406Z,1.30
2022-11-02T13:51:04.796Z,1.10
2022-11-02T13:53:37.642Z,1.30
2022-11-02T13:56:10.437Z,1.30
2022-11-02T13:58:47.331Z,1.45
2022-11-02T14:01:19.901Z,1.40
2022-11-02T14:03:51.433Z,1.40
2022-11-02T14:06:22.093Z,1.50
2022-11-02T14:08:53.570Z,1.25
2022-11-02T14:11:28.889Z,1.20
2022-11-02T14:14:23.490Z,1.52
2022-11-02T14:17:00.176Z,1.33
2022-11-02T14:19:33.248Z,1.20
2022-11-02T14:22:15.308Z,1.20
2022-11-02T14:25:19.628Z,1.40
2022-11-02T14:27:47.837Z,1.48
2022-11-02T14:30:45.591Z,1.40
2022-11-02T14:33:41.911Z,0.93
2022-11-02T14:36:21.439Z,1.33
2022-11-02T14:39:05.502Z,1.30
2022-11-02T14:41:54.036Z,1.60
2022-11-02T14:44:42.026Z,1.30
2022-11-02T14:47:13.398Z,2.00
2022-11-02T14:49:49.797Z,1.52
2022-11-02T14:52:27.109Z,1.73
2022-11-02T14:55:02.443Z,1.33
2022-11-02T14:57:35.671Z,1.35
2022-11-02T15:00:07.236Z,1.08
2022-11-02T15:02:42.979Z,1.40
2022-11-02T15:05:24.010Z,1.48
2022-11-02T15:07:56.156Z,1.27
2022-11-02T15:10:48.464Z,1.90
2022-11-02T15:13:48.553Z,1.50
2022-11-02T15:16:24.309Z,1.30
2022-11-02T15:18:55.839Z,1.42
2022-11-02T15:21:30.243Z,1.33
2022-11-02T15:24:13.865Z,1.20
2022-11-02T15:26:53.740Z,1.15
2022-11-02T15:29:33.131Z,1.52
2022-11-02T15:32:03.060Z,1.40
2022-11-02T15:34:37.884Z,1.40
2022-11-02T15:37:06.575Z,1.52
2022-11-02T15:39:36.852Z,1.60
2022-11-02T15:42:08.607Z,1.60
2022-11-02T15:45:14.208Z,1.58
2022-11-02T15:48:01.355Z,1.77
2022-11-02T15:50:41.415Z,2.05
2022-11-02T15:53:29.422Z,2.28
2022-11-02T15:56:15.399Z,2.83
2022-11-02T15:58:55.394Z,2.28
2022-11-02T16:01:25.701Z,1.58
2022-11-02T16:03:58.619Z,1.70
2022-11-02T16:06:31.176Z,1.75
2022-11-02T16:09:01.905Z,1.63
2022-11-02T16:11:30.409Z,1.60
2022-11-02T16:14:16.892Z,1.60
2022-11-02T16:16:49.015Z,1.58
2022-11-02T16:19:20.944Z,2.00
2022-11-02T16:21:51.224Z,1.70
2022-11-02T16:24:19.924Z,2.17
2022-11-02T16:26:49.491Z,1.70
2022-11-02T16:29:28.028Z,1.75
2022-11-02T16:31:56.480Z,1.58
2022-11-02T16:34:28.672Z,2.22
2022-11-02T16:36:59.149Z,1.90
2022-11-02T16:39:30.311Z,2.03
2022-11-02T16:42:00.502Z,1.80
2022-11-02T16:44:31.326Z,1.90
2022-11-02T16:47:01.818Z,1.88
2022-11-02T16:49:30.180Z,1.95
2022-11-02T16:52:06.738Z,1.88
2022-11-02T16:54:43.151Z,2.15
2022-11-02T16:57:17.078Z,4.38
2022-11-02T16:59:55.127Z,1.80
2022-11-02T17:02:33.322Z,2.15
2022-11-02T17:05:06.207Z,2.20
2022-11-02T17:07:40.233Z,2.20
2022-11-02T17:10:09.603Z,2.28
2022-11-02T17:12:41.873Z,2.25
2022-11-02T17:15:17.852Z,2.65
2022-11-02T17:17:46.947Z,2.05
2022-11-02T17:20:24.853Z,1.83
2022-11-02T17:22:58.936Z,2.40
2022-11-02T17:25:29.387Z,2.58
2022-11-02T17:28:06.379Z,2.35
2022-11-02T17:30:49.188Z,2.92
2022-11-02T17:33:25.992Z,2.53
2022-11-02T17:36:14.341Z,7.63
2022-11-02T17:39:00.443Z,9.90
2022-11-02T17:42:15.677Z,8.18
2022-11-02T17:45:38.042Z,12.40
2022-11-02T17:48:13.104Z,7.47
2022-11-02T17:50:42.695Z,3.78
2022-11-02T17:53:14.887Z,3.03
2022-11-02T18:16:09.190Z,2.40
2022-11-02T18:18:37.780Z,7.90
2022-11-02T18:21:06.487Z,5.18
2022-11-02T18:23:40.064Z,3.53
2022-11-02T18:26:08.892Z,2.80
2022-11-02T18:28:37.198Z,2.10
2022-11-02T18:31:07.413Z,2.33
2022-11-02T18:33:35.704Z,2.20
2022-11-02T18:36:05.581Z,2.33
2022-11-02T18:38:33.990Z,2.60
2022-11-02T18:41:22.621Z,2.85
2022-11-02T18:43:51.337Z,2.90
2022-11-02T18:46:19.786Z,3.10
2022-11-02T18:48:48.731Z,3.10
2022-11-02T18:51:17.173Z,3.42
2022-11-02T18:53:45.507Z,3.25
2022-11-02T18:56:15.124Z,4.00
2022-11-02T18:58:44.822Z,3.88
2022-11-02T19:01:14.464Z,3.40
2022-11-02T19:03:42.796Z,3.30
2022-11-02T19:06:28.823Z,2.78
2022-11-02T19:09:15.741Z,3.40
2022-11-02T19:11:47.312Z,2.60
2022-11-02T19:14:15.768Z,2.70
2022-11-02T19:16:44.276Z,2.97
2022-11-02T19:19:12.871Z,2.50
2022-11-02T19:21:42.593Z,3.33
2022-11-02T19:24:11.771Z,3.00
2022-11-02T19:26:40.459Z,2.83
2022-11-02T19:29:10.090Z,2.53
2022-11-02T19:31:38.688Z,2.42
2022-11-02T19:34:07.388Z,11.85
2022-11-02T19:36:36.503Z,10.50
2022-11-02T19:39:07.019Z,4.93
2022-11-02T19:41:35.751Z,2.88
2022-11-02T19:44:04.502Z,2.42
2022-11-02T19:46:35.398Z,2.38
2022-11-02T19:49:03.756Z,2.70
2022-11-02T19:51:32.861Z,5.03
2022-11-02T19:54:04.311Z,2.28
2022-11-02T19:56:34.329Z,2.50
2022-11-02T19:59:03.479Z,2.42
2022-11-02T20:01:34.937Z,2.22
2022-11-02T20:04:03.891Z,1.90
2022-11-02T20:06:35.742Z,2.25
2022-11-02T20:09:06.634Z,2.10
2022-11-02T20:11:35.950Z,2.42
2022-11-02T20:14:05.190Z,2.22
2022-11-02T20:16:34.865Z,2.40
2022-11-02T20:19:04.260Z,2.42
2022-11-02T20:21:36.846Z,2.70
2022-11-02T20:24:11.389Z,2.25
2022-11-02T20:26:41.811Z,2.50
2022-11-02T20:29:13.729Z,2.20
2022-11-02T20:31:47.192Z,2.13
2022-11-02T20:34:15.506Z,2.28
2022-11-02T20:36:43.729Z,2.03
2022-11-02T20:39:13.327Z,1.80
2022-11-02T20:41:42.110Z,1.95
2022-11-02T20:44:10.503Z,4.20
2022-11-02T20:46:41.625Z,5.00
2022-11-02T20:49:22.749Z,3.35
2022-11-02T20:52:01.639Z,2.75
2022-11-02T20:54:30.385Z,3.08
2022-11-02T20:56:59.496Z,2.15
2022-11-02T20:59:27.860Z,2.00
2022-11-02T21:01:56.217Z,2.00
2022-11-02T21:04:26.396Z,1.90
2022-11-02T21:06:54.607Z,2.33
2022-11-02T21:09:23.163Z,2.05
2022-11-02T21:12:08.913Z,1.90
2022-11-02T21:14:37.467Z,2.22
2022-11-02T21:17:06.703Z,2.05
2022-11-02T21:19:36.375Z,2.10
2022-11-02T21:22:04.571Z,1.90
2022-11-02T21:24:35.956Z,2.33
2022-11-02T21:27:06.653Z,1.80
2022-11-02T21:29:35.252Z,1.83
2022-11-02T21:32:03.475Z,1.88
2022-11-02T21:34:31.623Z,1.95
2022-11-02T21:37:03.066Z,1.80
2022-11-02T21:39:31.376Z,1.83
2022-11-02T21:41:59.863Z,2.25
2022-11-02T21:44:28.428Z,2.00
2022-11-02T21:46:56.511Z,1.75
2022-11-02T21:49:24.696Z,1.90
2022-11-02T21:51:52.839Z,2.95
2022-11-02T21:54:22.333Z,1.65
2022-11-02T21:56:51.494Z,2.15
2022-11-02T21:59:19.703Z,1.73
2022-11-02T22:01:49.302Z,1.70
2022-11-02T22:04:21.624Z,2.00
2022-11-02T22:06:50.674Z,2.42
2022-11-02T22:09:19.513Z,1.90
2022-11-02T22:12:09.162Z,1.90
2022-11-02T22:14:36.397Z,1.85
2022-11-02T22:17:16.094Z,1.90
2022-11-02T22:19:45.056Z,1.50
2022-11-02T22:22:13.231Z,1.95
2022-11-02T22:24:44.770Z,1.75
2022-11-02T22:27:14.713Z,2.17
2022-11-02T22:29:42.876Z,1.67
2022-11-02T22:32:11.001Z,1.98
2022-11-02T22:34:39.628Z,2.08
2022-11-02T22:37:24.551Z,2.33
2022-11-02T22:39:52.790Z,2.22
2022-11-02T22:42:22.371Z,2.40
2022-11-02T22:44:50.567Z,2.20
2022-11-02T22:47:18.767Z,1.98
2022-11-02T22:49:46.877Z,2.13
2022-11-02T22:52:15.230Z,1.90
2022-11-02T22:54:43.442Z,2.10
2022-11-02T22:57:11.642Z,2.85
2022-11-02T22:59:41.338Z,2.50
2022-11-02T23:02:09.731Z,2.45
2022-11-02T23:04:37.961Z,2.53
2022-11-02T23:07:06.201Z,2.33
2022-11-02T23:09:34.446Z,2.13
2022-11-02T23:12:01.631Z,2.38
2022-11-02T23:14:30.079Z,2.33
2022-11-02T23:16:59.756Z,2.55
2022-11-02T23:19:30.202Z,2.03
2022-11-02T23:22:18.030Z,2.42
2022-11-02T23:25:05.341Z,2.38
2022-11-02T23:27:34.670Z,1.98
2022-11-02T23:30:20.532Z,11.27
2022-11-02T23:32:50.838Z,11.13
2022-11-02T23:35:36.435Z,4.38
2022-11-02T23:38:07.600Z,2.40
2022-11-02T23:40:35.738Z,2.35
2022-11-02T23:43:06.114Z,2.70
2022-11-02T23:45:34.642Z,2.78
2022-11-02T23:48:08.049Z,2.75
2022-11-02T23:50:54.458Z,2.97
2022-11-02T23:53:41.781Z,3.17
2022-11-02T23:56:34.141Z,3.13
2022-11-02T23:59:08.279Z,3.55
